sensor_id;sensor_type;location;lat;lon;timestamp;pressure;altitude;pressure_sealevel;temperature;humidity
16525;BME280;8375;33.594;-117.718;2023-12-04T00:00:58;100730.19;;;18.66;52.00
16525;BME280;8375;33.594;-117.718;2023-12-04T00:03:26;100733.91;;;18.55;52.09
16525;BME280;8375;33.594;-117.718;2023-12-04T00:05:55;100741.91;;;18.45;52.76
16525;BME280;8375;33.594;-117.718;2023-12-04T00:08:25;100738.56;;;18.35;53.49
16525;BME280;8375;33.594;-117.718;2023-12-04T00:10:54;100737.69;;;18.26;53.81
16525;BME280;8375;33.594;-117.718;2023-12-04T00:13:28;100736.53;;;18.20;54.03
16525;BME280;8375;33.594;-117.718;2023-12-04T00:15:56;100731.00;;;18.05;54.63
16525;BME280;8375;33.594;-117.718;2023-12-04T00:18:25;100721.06;;;17.99;55.17
16525;BME280;8375;33.594;-117.718;2023-12-04T00:20:54;100733.66;;;17.87;55.35
16525;BME280;8375;33.594;-117.718;2023-12-04T00:23:23;100730.78;;;17.80;55.99
16525;BME280;8375;33.594;-117.718;2023-12-04T00:25:54;100736.44;;;17.67;55.97
16525;BME280;8375;33.594;-117.718;2023-12-04T00:28:23;100732.78;;;17.60;57.08
16525;BME280;8375;33.594;-117.718;2023-12-04T00:30:52;100732.41;;;17.55;57.31
16525;BME280;8375;33.594;-117.718;2023-12-04T00:33:20;100734.97;;;17.47;57.47
16525;BME280;8375;33.594;-117.718;2023-12-04T00:35:49;100732.94;;;17.40;57.83
16525;BME280;8375;33.594;-117.718;2023-12-04T00:38:18;100729.25;;;17.33;57.96
16525;BME280;8375;33.594;-117.718;2023-12-04T00:40:46;100727.97;;;17.19;58.08
16525;BME280;8375;33.594;-117.718;2023-12-04T00:43:17;100737.78;;;16.89;59.09
16525;BME280;8375;33.594;-117.718;2023-12-04T00:45:46;100747.16;;;16.92;59.72
16525;BME280;8375;33.594;-117.718;2023-12-04T00:48:14;100744.84;;;16.89;60.31
16525;BME280;8375;33.594;-117.718;2023-12-04T00:50:43;100748.03;;;16.82;60.36
16525;BME280;8375;33.594;-117.718;2023-12-04T00:53:12;100750.94;;;16.79;60.68
16525;BME280;8375;33.594;-117.718;2023-12-04T00:55:40;100753.31;;;16.72;60.00
16525;BME280;8375;33.594;-117.718;2023-12-04T00:58:09;100761.63;;;16.68;60.45
16525;BME280;8375;33.594;-117.718;2023-12-04T01:00:39;100757.94;;;16.61;61.35
16525;BME280;8375;33.594;-117.718;2023-12-04T01:03:08;100764.72;;;16.53;61.65
16525;BME280;8375;33.594;-117.718;2023-12-04T01:05:37;100761.59;;;16.30;61.74
16525;BME280;8375;33.594;-117.718;2023-12-04T01:08:06;100766.59;;;16.13;62.41
16525;BME280;8375;33.594;-117.718;2023-12-04T01:10:35;100775.28;;;16.14;63.41
16525;BME280;8375;33.594;-117.718;2023-12-04T01:13:04;100772.69;;;16.14;63.62
16525;BME280;8375;33.594;-117.718;2023-12-04T01:15:33;100774.72;;;16.10;63.95
16525;BME280;8375;33.594;-117.718;2023-12-04T01:18:04;100777.09;;;16.04;63.85
16525;BME280;8375;33.594;-117.718;2023-12-04T01:20:33;100788.13;;;15.97;64.23
16525;BME280;8375;33.594;-117.718;2023-12-04T01:23:02;100777.50;;;15.89;65.23
16525;BME280;8375;33.594;-117.718;2023-12-04T01:25:31;100802.97;;;15.77;65.87
16525;BME280;8375;33.594;-117.718;2023-12-04T01:28:00;100797.59;;;15.69;66.54
16525;BME280;8375;33.594;-117.718;2023-12-04T01:30:29;100801.72;;;15.62;66.34
16525;BME280;8375;33.594;-117.718;2023-12-04T01:32:58;100798.97;;;15.53;66.68
16525;BME280;8375;33.594;-117.718;2023-12-04T01:35:29;100795.66;;;15.51;66.96
16525;BME280;8375;33.594;-117.718;2023-12-04T01:37:58;100802.22;;;15.46;66.87
16525;BME280;8375;33.594;-117.718;2023-12-04T01:40:27;100806.94;;;15.42;66.96
16525;BME280;8375;33.594;-117.718;2023-12-04T01:42:57;100819.00;;;15.33;67.48
16525;BME280;8375;33.594;-117.718;2023-12-04T01:45:26;100812.38;;;15.29;68.20
16525;BME280;8375;33.594;-117.718;2023-12-04T01:47:59;100814.84;;;15.21;68.42
16525;BME280;8375;33.594;-117.718;2023-12-04T01:50:34;100817.88;;;15.16;68.67
16525;BME280;8375;33.594;-117.718;2023-12-04T01:53:04;100817.56;;;15.09;69.03
16525;BME280;8375;33.594;-117.718;2023-12-04T01:55:33;100821.13;;;14.99;69.26
16525;BME280;8375;33.594;-117.718;2023-12-04T01:58:04;100818.63;;;14.97;69.75
16525;BME280;8375;33.594;-117.718;2023-12-04T02:00:37;100815.31;;;14.95;70.09
16525;BME280;8375;33.594;-117.718;2023-12-04T02:03:09;100820.78;;;14.82;70.82
16525;BME280;8375;33.594;-117.718;2023-12-04T02:05:45;100819.94;;;14.81;70.83
16525;BME280;8375;33.594;-117.718;2023-12-04T02:08:15;100814.41;;;14.75;70.67
16525;BME280;8375;33.594;-117.718;2023-12-04T02:10:45;100803.88;;;14.65;71.28
16525;BME280;8375;33.594;-117.718;2023-12-04T02:13:15;100808.41;;;14.63;71.23
16525;BME280;8375;33.594;-117.718;2023-12-04T02:15:45;100804.38;;;14.59;71.35
16525;BME280;8375;33.594;-117.718;2023-12-04T02:18:18;100808.38;;;14.53;71.73
16525;BME280;8375;33.594;-117.718;2023-12-04T02:20:51;100812.19;;;14.49;71.86
16525;BME280;8375;33.594;-117.718;2023-12-04T02:23:21;100803.22;;;14.42;72.19
16525;BME280;8375;33.594;-117.718;2023-12-04T02:25:54;100797.81;;;14.33;72.35
16525;BME280;8375;33.594;-117.718;2023-12-04T02:28:30;100801.72;;;14.28;72.76
16525;BME280;8375;33.594;-117.718;2023-12-04T02:31:04;100802.13;;;14.23;73.36
16525;BME280;8375;33.594;-117.718;2023-12-04T02:33:34;100811.16;;;14.19;73.71
16525;BME280;8375;33.594;-117.718;2023-12-04T02:36:05;100821.41;;;14.11;74.11
16525;BME280;8375;33.594;-117.718;2023-12-04T02:38:36;100828.22;;;14.02;74.63
16525;BME280;8375;33.594;-117.718;2023-12-04T02:41:08;100834.31;;;13.91;75.26
16525;BME280;8375;33.594;-117.718;2023-12-04T02:43:38;100825.66;;;13.90;75.04
16525;BME280;8375;33.594;-117.718;2023-12-04T02:46:08;100831.94;;;13.88;75.31
16525;BME280;8375;33.594;-117.718;2023-12-04T02:48:38;100840.13;;;13.83;75.39
16525;BME280;8375;33.594;-117.718;2023-12-04T02:51:08;100834.47;;;13.78;75.71
16525;BME280;8375;33.594;-117.718;2023-12-04T02:53:38;100839.69;;;13.78;75.52
16525;BME280;8375;33.594;-117.718;2023-12-04T02:56:10;100848.84;;;13.72;75.98
16525;BME280;8375;33.594;-117.718;2023-12-04T02:58:40;100841.38;;;13.68;76.12
16525;BME280;8375;33.594;-117.718;2023-12-04T03:01:09;100843.50;;;13.62;76.07
16525;BME280;8375;33.594;-117.718;2023-12-04T03:03:37;100844.34;;;13.63;75.97
16525;BME280;8375;33.594;-117.718;2023-12-04T03:06:07;100834.28;;;13.58;76.86
16525;BME280;8375;33.594;-117.718;2023-12-04T03:08:36;100830.38;;;13.53;77.31
16525;BME280;8375;33.594;-117.718;2023-12-04T03:11:05;100835.00;;;13.49;77.52
16525;BME280;8375;33.594;-117.718;2023-12-04T03:13:36;100834.75;;;13.41;77.98
16525;BME280;8375;33.594;-117.718;2023-12-04T03:16:05;100824.81;;;13.34;78.90
16525;BME280;8375;33.594;-117.718;2023-12-04T03:18:34;100820.69;;;13.32;79.06
16525;BME280;8375;33.594;-117.718;2023-12-04T03:21:04;100817.38;;;13.30;78.94
16525;BME280;8375;33.594;-117.718;2023-12-04T03:23:34;100823.97;;;13.23;79.57
16525;BME280;8375;33.594;-117.718;2023-12-04T03:26:03;100829.44;;;13.19;79.78
16525;BME280;8375;33.594;-117.718;2023-12-04T03:28:32;100829.81;;;13.15;80.29
16525;BME280;8375;33.594;-117.718;2023-12-04T03:31:03;100837.72;;;13.13;80.59
16525;BME280;8375;33.594;-117.718;2023-12-04T03:33:31;100833.59;;;13.11;80.95
16525;BME280;8375;33.594;-117.718;2023-12-04T03:36:00;100828.72;;;13.06;81.25
16525;BME280;8375;33.594;-117.718;2023-12-04T03:38:29;100828.25;;;13.01;81.50
16525;BME280;8375;33.594;-117.718;2023-12-04T03:40:57;100826.84;;;12.97;81.88
16525;BME280;8375;33.594;-117.718;2023-12-04T03:43:26;100840.09;;;12.94;82.10
16525;BME280;8375;33.594;-117.718;2023-12-04T03:45:55;100842.13;;;12.90;82.42
16525;BME280;8375;33.594;-117.718;2023-12-04T03:48:25;100834.06;;;12.82;83.43
16525;BME280;8375;33.594;-117.718;2023-12-04T03:50:54;100831.31;;;12.83;83.63
16525;BME280;8375;33.594;-117.718;2023-12-04T03:53:23;100834.28;;;12.79;84.34
16525;BME280;8375;33.594;-117.718;2023-12-04T03:55:51;100826.94;;;12.72;84.62
16525;BME280;8375;33.594;-117.718;2023-12-04T03:58:20;100828.34;;;12.65;85.30
16525;BME280;8375;33.594;-117.718;2023-12-04T04:00:49;100833.31;;;12.57;85.85
16525;BME280;8375;33.594;-117.718;2023-12-04T04:03:17;100819.22;;;12.59;85.73
16525;BME280;8375;33.594;-117.718;2023-12-04T04:05:47;100825.50;;;12.57;86.24
16525;BME280;8375;33.594;-117.718;2023-12-04T04:08:16;100819.69;;;12.53;86.45
16525;BME280;8375;33.594;-117.718;2023-12-04T04:10:45;100820.84;;;12.49;86.46
16525;BME280;8375;33.594;-117.718;2023-12-04T04:13:14;100821.22;;;12.44;87.04
16525;BME280;8375;33.594;-117.718;2023-12-04T04:15:42;100828.31;;;12.42;87.50
16525;BME280;8375;33.594;-117.718;2023-12-04T04:18:12;100823.78;;;12.33;88.04
16525;BME280;8375;33.594;-117.718;2023-12-04T04:20:41;100822.38;;;12.29;88.46
16525;BME280;8375;33.594;-117.718;2023-12-04T04:23:11;100832.78;;;12.29;88.74
16525;BME280;8375;33.594;-117.718;2023-12-04T04:25:40;100831.22;;;12.26;89.38
16525;BME280;8375;33.594;-117.718;2023-12-04T04:28:08;100830.41;;;12.26;89.69
16525;BME280;8375;33.594;-117.718;2023-12-04T04:30:37;100833.72;;;12.28;89.90
16525;BME280;8375;33.594;-117.718;2023-12-04T04:33:06;100826.13;;;12.25;89.94
16525;BME280;8375;33.594;-117.718;2023-12-04T04:35:35;100831.44;;;12.23;90.32
16525;BME280;8375;33.594;-117.718;2023-12-04T04:38:04;100829.91;;;12.21;90.84
16525;BME280;8375;33.594;-117.718;2023-12-04T04:40:34;100823.03;;;12.20;91.03
16525;BME280;8375;33.594;-117.718;2023-12-04T04:43:03;100819.50;;;12.21;91.25
16525;BME280;8375;33.594;-117.718;2023-12-04T04:45:32;100813.69;;;12.17;92.27
16525;BME280;8375;33.594;-117.718;2023-12-04T04:48:01;100810.50;;;12.13;93.21
16525;BME280;8375;33.594;-117.718;2023-12-04T04:50:29;100810.50;;;12.13;93.50
16525;BME280;8375;33.594;-117.718;2023-12-04T04:52:58;100819.69;;;12.06;94.08
16525;BME280;8375;33.594;-117.718;2023-12-04T04:55:27;100819.06;;;12.02;93.58
16525;BME280;8375;33.594;-117.718;2023-12-04T04:57:58;100817.72;;;11.97;93.85
16525;BME280;8375;33.594;-117.718;2023-12-04T05:00:27;100823.88;;;11.96;94.31
16525;BME280;8375;33.594;-117.718;2023-12-04T05:02:55;100824.09;;;11.93;95.28
16525;BME280;8375;33.594;-117.718;2023-12-04T05:05:24;100827.00;;;11.88;96.04
16525;BME280;8375;33.594;-117.718;2023-12-04T05:07:53;100821.94;;;11.86;96.86
16525;BME280;8375;33.594;-117.718;2023-12-04T05:10:22;100816.03;;;11.84;97.51
16525;BME280;8375;33.594;-117.718;2023-12-04T05:12:50;100811.75;;;11.83;97.71
16525;BME280;8375;33.594;-117.718;2023-12-04T05:15:20;100812.91;;;11.79;98.27
16525;BME280;8375;33.594;-117.718;2023-12-04T05:17:49;100810.53;;;11.76;99.37
16525;BME280;8375;33.594;-117.718;2023-12-04T05:20:18;100811.34;;;11.77;99.43
16525;BME280;8375;33.594;-117.718;2023-12-04T05:22:46;100821.53;;;11.80;99.57
16525;BME280;8375;33.594;-117.718;2023-12-04T05:25:15;100823.41;;;11.78;100.00
16525;BME280;8375;33.594;-117.718;2023-12-04T05:27:44;100826.38;;;11.73;100.00
16525;BME280;8375;33.594;-117.718;2023-12-04T05:30:13;100828.03;;;11.74;100.00
16525;BME280;8375;33.594;-117.718;2023-12-04T05:32:43;100823.78;;;11.73;100.00
16525;BME280;8375;33.594;-117.718;2023-12-04T05:35:12;100823.28;;;11.68;100.00
16525;BME280;8375;33.594;-117.718;2023-12-04T05:37:40;100821.38;;;11.70;100.00
16525;BME280;8375;33.594;-117.718;2023-12-04T05:40:09;100815.47;;;11.68;100.00
16525;BME280;8375;33.594;-117.718;2023-12-04T05:42:39;100822.41;;;11.67;100.00
16525;BME280;8375;33.594;-117.718;2023-12-04T05:45:08;100825.16;;;11.66;100.00
16525;BME280;8375;33.594;-117.718;2023-12-04T05:47:37;100821.09;;;11.62;100.00
16525;BME280;8375;33.594;-117.718;2023-12-04T05:50:08;100817.78;;;11.59;100.00
16525;BME280;8375;33.594;-117.718;2023-12-04T05:52:37;100820.38;;;11.59;100.00
16525;BME280;8375;33.594;-117.718;2023-12-04T05:55:06;100820.59;;;11.56;100.00
16525;BME280;8375;33.594;-117.718;2023-12-04T05:57:35;100828.94;;;11.49;100.00
16525;BME280;8375;33.594;-117.718;2023-12-04T06:00:04;100836.84;;;11.47;100.00
16525;BME280;8375;33.594;-117.718;2023-12-04T06:02:38;100831.88;;;11.44;100.00
16525;BME280;8375;33.594;-117.718;2023-12-04T06:05:09;100826.16;;;11.39;100.00
16525;BME280;8375;33.594;-117.718;2023-12-04T06:07:38;100825.53;;;11.35;100.00
16525;BME280;8375;33.594;-117.718;2023-12-04T06:10:08;100825.75;;;11.32;100.00
16525;BME280;8375;33.594;-117.718;2023-12-04T06:12:36;100825.97;;;11.29;100.00
16525;BME280;8375;33.594;-117.718;2023-12-04T06:15:07;100817.34;;;11.28;100.00
16525;BME280;8375;33.594;-117.718;2023-12-04T06:17:36;100821.81;;;11.26;100.00
16525;BME280;8375;33.594;-117.718;2023-12-04T06:20:05;100816.34;;;11.18;100.00
16525;BME280;8375;33.594;-117.718;2023-12-04T06:22:36;100821.75;;;11.15;100.00
16525;BME280;8375;33.594;-117.718;2023-12-04T06:25:06;100820.81;;;11.16;100.00
16525;BME280;8375;33.594;-117.718;2023-12-04T06:27:36;100809.06;;;11.10;100.00
16525;BME280;8375;33.594;-117.718;2023-12-04T06:30:06;100807.53;;;11.08;100.00
16525;BME280;8375;33.594;-117.718;2023-12-04T06:32:35;100803.47;;;11.04;100.00
16525;BME280;8375;33.594;-117.718;2023-12-04T06:35:05;100797.66;;;11.00;100.00
16525;BME280;8375;33.594;-117.718;2023-12-04T06:37:35;100801.81;;;11.03;100.00
16525;BME280;8375;33.594;-117.718;2023-12-04T06:40:07;100802.75;;;11.02;100.00
16525;BME280;8375;33.594;-117.718;2023-12-04T06:42:38;100806.38;;;10.99;100.00
16525;BME280;8375;33.594;-117.718;2023-12-04T06:45:08;100802.44;;;10.93;100.00
16525;BME280;8375;33.594;-117.718;2023-12-04T06:47:37;100790.50;;;10.91;100.00
16525;BME280;8375;33.594;-117.718;2023-12-04T06:50:08;100789.75;;;10.89;100.00
16525;BME280;8375;33.594;-117.718;2023-12-04T06:52:39;100787.50;;;10.84;100.00
16525;BME280;8375;33.594;-117.718;2023-12-04T06:55:08;100785.00;;;10.82;100.00
16525;BME280;8375;33.594;-117.718;2023-12-04T06:57:37;100788.44;;;10.83;100.00
16525;BME280;8375;33.594;-117.718;2023-12-04T07:00:07;100785.09;;;10.81;100.00
16525;BME280;8375;33.594;-117.718;2023-12-04T07:02:38;100782.59;;;10.79;100.00
16525;BME280;8375;33.594;-117.718;2023-12-04T07:05:07;100791.44;;;10.77;100.00
16525;BME280;8375;33.594;-117.718;2023-12-04T07:07:38;100787.91;;;10.78;100.00
16525;BME280;8375;33.594;-117.718;2023-12-04T07:10:07;100788.94;;;10.75;100.00
16525;BME280;8375;33.594;-117.718;2023-12-04T07:12:41;100782.28;;;10.71;100.00
16525;BME280;8375;33.594;-117.718;2023-12-04T07:15:10;100788.22;;;10.73;100.00
16525;BME280;8375;33.594;-117.718;2023-12-04T07:17:39;100788.41;;;10.70;100.00
16525;BME280;8375;33.594;-117.718;2023-12-04T07:20:09;100787.81;;;10.66;100.00
16525;BME280;8375;33.594;-117.718;2023-12-04T07:22:40;100789.69;;;10.64;100.00
16525;BME280;8375;33.594;-117.718;2023-12-04T07:25:09;100783.13;;;10.59;100.00
16525;BME280;8375;33.594;-117.718;2023-12-04T07:27:38;100788.41;;;10.57;100.00
16525;BME280;8375;33.594;-117.718;2023-12-04T07:30:07;100791.41;;;10.51;100.00
16525;BME280;8375;33.594;-117.718;2023-12-04T07:32:36;100783.03;;;10.47;100.00
16525;BME280;8375;33.594;-117.718;2023-12-04T07:35:06;100781.66;;;10.41;100.00
16525;BME280;8375;33.594;-117.718;2023-12-04T07:37:35;100779.56;;;10.34;100.00
16525;BME280;8375;33.594;-117.718;2023-12-04T07:40:06;100776.91;;;10.08;100.00
16525;BME280;8375;33.594;-117.718;2023-12-04T07:42:37;100772.34;;;10.11;100.00
16525;BME280;8375;33.594;-117.718;2023-12-04T07:45:06;100782.53;;;10.15;100.00
16525;BME280;8375;33.594;-117.718;2023-12-04T07:47:36;100775.88;;;10.10;100.00
16525;BME280;8375;33.594;-117.718;2023-12-04T07:50:06;100780.31;;;10.08;100.00
16525;BME280;8375;33.594;-117.718;2023-12-04T07:52:35;100770.81;;;10.09;100.00
16525;BME280;8375;33.594;-117.718;2023-12-04T07:55:05;100766.44;;;10.09;100.00
16525;BME280;8375;33.594;-117.718;2023-12-04T07:57:34;100763.09;;;10.07;100.00
16525;BME280;8375;33.594;-117.718;2023-12-04T08:00:03;100752.19;;;10.02;100.00
16525;BME280;8375;33.594;-117.718;2023-12-04T08:02:32;100753.34;;;9.98;100.00
16525;BME280;8375;33.594;-117.718;2023-12-04T08:05:01;100748.06;;;10.00;100.00
16525;BME280;8375;33.594;-117.718;2023-12-04T08:07:29;100748.06;;;10.00;100.00
16525;BME280;8375;33.594;-117.718;2023-12-04T08:09:58;100751.66;;;9.97;100.00
16525;BME280;8375;33.594;-117.718;2023-12-04T08:12:28;100755.94;;;9.98;100.00
16525;BME280;8375;33.594;-117.718;2023-12-04T08:14:57;100756.03;;;9.96;100.00
16525;BME280;8375;33.594;-117.718;2023-12-04T08:17:25;100757.59;;;9.99;100.00
16525;BME280;8375;33.594;-117.718;2023-12-04T08:19:54;100755.00;;;9.99;100.00
16525;BME280;8375;33.594;-117.718;2023-12-04T08:22:23;100749.91;;;9.97;100.00
16525;BME280;8375;33.594;-117.718;2023-12-04T08:24:51;100746.69;;;9.94;100.00
16525;BME280;8375;33.594;-117.718;2023-12-04T08:27:20;100734.84;;;9.90;100.00
16525;BME280;8375;33.594;-117.718;2023-12-04T08:29:50;100735.06;;;9.87;100.00
16525;BME280;8375;33.594;-117.718;2023-12-04T08:32:19;100738.38;;;9.89;100.00
16525;BME280;8375;33.594;-117.718;2023-12-04T08:34:48;100733.19;;;9.89;100.00
16525;BME280;8375;33.594;-117.718;2023-12-04T08:37:17;100735.06;;;9.87;100.00
16525;BME280;8375;33.594;-117.718;2023-12-04T08:39:46;100736.09;;;9.84;100.00
16525;BME280;8375;33.594;-117.718;2023-12-04T08:42:15;100732.66;;;9.83;100.00
16525;BME280;8375;33.594;-117.718;2023-12-04T08:44:44;100728.59;;;9.79;100.00
16525;BME280;8375;33.594;-117.718;2023-12-04T08:47:15;100731.94;;;9.81;100.00
16525;BME280;8375;33.594;-117.718;2023-12-04T08:49:44;100736.50;;;9.78;100.00
16525;BME280;8375;33.594;-117.718;2023-12-04T08:52:13;100729.53;;;9.78;100.00
16525;BME280;8375;33.594;-117.718;2023-12-04T08:54:42;100734.63;;;9.80;100.00
16525;BME280;8375;33.594;-117.718;2023-12-04T08:57:10;100726.66;;;9.83;100.00
16525;BME280;8375;33.594;-117.718;2023-12-04T08:59:39;100724.88;;;9.83;100.00
16525;BME280;8375;33.594;-117.718;2023-12-04T09:02:07;100727.88;;;9.77;100.00
16525;BME280;8375;33.594;-117.718;2023-12-04T09:04:38;100718.63;;;9.73;100.00
16525;BME280;8375;33.594;-117.718;2023-12-04T09:07:07;100720.16;;;9.63;100.00
16525;BME280;8375;33.594;-117.718;2023-12-04T09:09:35;100724.72;;;9.59;100.00
16525;BME280;8375;33.594;-117.718;2023-12-04T09:12:04;100722.22;;;9.58;100.00
16525;BME280;8375;33.594;-117.718;2023-12-04T09:14:34;100724.00;;;9.57;100.00
16525;BME280;8375;33.594;-117.718;2023-12-04T09:17:02;100721.47;;;9.56;100.00
16525;BME280;8375;33.594;-117.718;2023-12-04T09:19:31;100724.06;;;9.56;100.00
16525;BME280;8375;33.594;-117.718;2023-12-04T09:22:01;100720.66;;;9.55;100.00
16525;BME280;8375;33.594;-117.718;2023-12-04T09:24:30;100724.91;;;9.56;100.00
16525;BME280;8375;33.594;-117.718;2023-12-04T09:26:59;100737.97;;;9.54;100.00
16525;BME280;8375;33.594;-117.718;2023-12-04T09:29:28;100719.75;;;9.56;100.00
16525;BME280;8375;33.594;-117.718;2023-12-04T09:31:57;100725.75;;;9.57;100.00
16525;BME280;8375;33.594;-117.718;2023-12-04T09:34:25;100721.59;;;9.54;100.00
16525;BME280;8375;33.594;-117.718;2023-12-04T09:36:54;100720.88;;;9.52;100.00
16525;BME280;8375;33.594;-117.718;2023-12-04T09:39:24;100718.34;;;9.50;100.00
16525;BME280;8375;33.594;-117.718;2023-12-04T09:41:53;100713.28;;;9.49;100.00
16525;BME280;8375;33.594;-117.718;2023-12-04T09:44:24;100714.09;;;9.49;100.00
16525;BME280;8375;33.594;-117.718;2023-12-04T09:46:54;100723.00;;;9.45;100.00
16525;BME280;8375;33.594;-117.718;2023-12-04T09:49:23;100711.81;;;9.45;100.00
16525;BME280;8375;33.594;-117.718;2023-12-04T09:51:55;100712.56;;;9.47;100.00
16525;BME280;8375;33.594;-117.718;2023-12-04T09:54:27;100723.13;;;9.44;100.00
16525;BME280;8375;33.594;-117.718;2023-12-04T09:56:57;100715.22;;;9.45;100.00
16525;BME280;8375;33.594;-117.718;2023-12-04T09:59:26;100708.38;;;9.44;100.00
16525;BME280;8375;33.594;-117.718;2023-12-04T10:01:57;100708.38;;;9.44;100.00
16525;BME280;8375;33.594;-117.718;2023-12-04T10:04:26;100704.78;;;9.47;100.00
16525;BME280;8375;33.594;-117.718;2023-12-04T10:06:54;100710.78;;;9.47;100.00
16525;BME280;8375;33.594;-117.718;2023-12-04T10:09:23;100707.44;;;9.45;100.00
16525;BME280;8375;33.594;-117.718;2023-12-04T10:11:56;100711.28;;;9.39;100.00
16525;BME280;8375;33.594;-117.718;2023-12-04T10:14:25;100710.81;;;9.33;100.00
16525;BME280;8375;33.594;-117.718;2023-12-04T10:16:53;100705.56;;;9.34;100.00
16525;BME280;8375;33.594;-117.718;2023-12-04T10:19:23;100691.97;;;9.31;100.00
16525;BME280;8375;33.594;-117.718;2023-12-04T10:21:53;100702.25;;;9.32;100.00
16525;BME280;8375;33.594;-117.718;2023-12-04T10:24:30;100691.97;;;9.31;100.00
16525;BME280;8375;33.594;-117.718;2023-12-04T10:27:01;100695.28;;;9.33;100.00
16525;BME280;8375;33.594;-117.718;2023-12-04T10:29:41;100685.03;;;9.31;100.00
16525;BME280;8375;33.594;-117.718;2023-12-04T10:32:10;100695.19;;;9.34;100.00
16525;BME280;8375;33.594;-117.718;2023-12-04T10:34:39;100683.25;;;9.32;100.00
16525;BME280;8375;33.594;-117.718;2023-12-04T10:37:10;100679.75;;;9.33;100.00
16525;BME280;8375;33.594;-117.718;2023-12-04T10:39:46;100681.41;;;9.34;100.00
16525;BME280;8375;33.594;-117.718;2023-12-04T10:42:26;100678.91;;;9.32;100.00
16525;BME280;8375;33.594;-117.718;2023-12-04T10:44:56;100671.16;;;9.32;100.00
16525;BME280;8375;33.594;-117.718;2023-12-04T10:47:26;100670.59;;;9.27;100.00
16525;BME280;8375;33.594;-117.718;2023-12-04T10:49:55;100670.69;;;9.25;100.00
16525;BME280;8375;33.594;-117.718;2023-12-04T10:52:23;100659.50;;;9.25;100.00
16525;BME280;8375;33.594;-117.718;2023-12-04T10:54:52;100659.78;;;9.20;100.00
16525;BME280;8375;33.594;-117.718;2023-12-04T10:57:24;100657.13;;;9.22;100.00
16525;BME280;8375;33.594;-117.718;2023-12-04T10:59:58;100662.31;;;9.22;100.00
16525;BME280;8375;33.594;-117.718;2023-12-04T11:02:29;100657.31;;;9.19;100.00
16525;BME280;8375;33.594;-117.718;2023-12-04T11:05:07;100657.31;;;9.19;100.00
16525;BME280;8375;33.594;-117.718;2023-12-04T11:07:40;100649.75;;;9.16;100.00
16525;BME280;8375;33.594;-117.718;2023-12-04T11:10:10;100643.81;;;9.14;100.00
16525;BME280;8375;33.594;-117.718;2023-12-04T11:12:40;100643.81;;;9.14;100.00
16525;BME280;8375;33.594;-117.718;2023-12-04T11:15:17;100640.41;;;9.13;100.00
16525;BME280;8375;33.594;-117.718;2023-12-04T11:17:50;100646.31;;;9.15;100.00
16525;BME280;8375;33.594;-117.718;2023-12-04T11:20:21;100639.47;;;9.14;100.00
16525;BME280;8375;33.594;-117.718;2023-12-04T11:22:53;100640.41;;;9.13;100.00
16525;BME280;8375;33.594;-117.718;2023-12-04T11:25:22;100630.75;;;9.15;100.00
16525;BME280;8375;33.594;-117.718;2023-12-04T11:27:52;100637.81;;;9.13;100.00
16525;BME280;8375;33.594;-117.718;2023-12-04T11:30:24;100624.13;;;9.11;100.00
16525;BME280;8375;33.594;-117.718;2023-12-04T11:32:54;100624.97;;;9.12;100.00
16525;BME280;8375;33.594;-117.718;2023-12-04T11:35:26;100624.22;;;9.09;100.00
16525;BME280;8375;33.594;-117.718;2023-12-04T11:37:55;100622.66;;;9.07;100.00
16525;BME280;8375;33.594;-117.718;2023-12-04T11:40:24;100618.50;;;9.04;100.00
16525;BME280;8375;33.594;-117.718;2023-12-04T11:42:53;100622.13;;;9.02;100.00
16525;BME280;8375;33.594;-117.718;2023-12-04T11:45:23;100623.16;;;8.99;100.00
16525;BME280;8375;33.594;-117.718;2023-12-04T11:47:54;100625.81;;;8.98;100.00
16525;BME280;8375;33.594;-117.718;2023-12-04T11:50:25;100622.69;;;8.92;100.00
16525;BME280;8375;33.594;-117.718;2023-12-04T11:52:54;100627.16;;;8.90;100.00
16525;BME280;8375;33.594;-117.718;2023-12-04T11:55:26;100628.81;;;8.91;100.00
16525;BME280;8375;33.594;-117.718;2023-12-04T11:57:55;100624.66;;;8.89;100.00
16525;BME280;8375;33.594;-117.718;2023-12-04T12:00:26;100627.53;;;8.84;100.00
16525;BME280;8375;33.594;-117.718;2023-12-04T12:03:05;100626.78;;;8.82;100.00
16525;BME280;8375;33.594;-117.718;2023-12-04T12:05:36;100627.63;;;8.83;100.00
16525;BME280;8375;33.594;-117.718;2023-12-04T12:08:09;100615.31;;;8.86;100.00
16525;BME280;8375;33.594;-117.718;2023-12-04T12:10:38;100620.50;;;8.86;100.00
16525;BME280;8375;33.594;-117.718;2023-12-04T12:13:06;100624.31;;;8.80;100.00
16525;BME280;8375;33.594;-117.718;2023-12-04T12:15:37;100614.03;;;8.79;100.00
16525;BME280;8375;33.594;-117.718;2023-12-04T12:18:06;100622.94;;;8.75;100.00
16525;BME280;8375;33.594;-117.718;2023-12-04T12:20:37;100622.13;;;8.74;100.00
16525;BME280;8375;33.594;-117.718;2023-12-04T12:23:06;100627.38;;;8.73;100.00
16525;BME280;8375;33.594;-117.718;2023-12-04T12:25:35;100629.03;;;8.74;100.00
16525;BME280;8375;33.594;-117.718;2023-12-04T12:28:07;100624.78;;;8.73;100.00
16525;BME280;8375;33.594;-117.718;2023-12-04T12:30:37;100635.88;;;8.75;100.00
16525;BME280;8375;33.594;-117.718;2023-12-04T12:33:06;100638.84;;;8.69;100.00
16525;BME280;8375;33.594;-117.718;2023-12-04T12:35:34;100634.69;;;8.66;100.00
16525;BME280;8375;33.594;-117.718;2023-12-04T12:38:03;100638.22;;;8.65;100.00
16525;BME280;8375;33.594;-117.718;2023-12-04T12:40:32;100630.53;;;8.63;100.00